createdAt,value
2023-04-22T00:00:19.558Z,7.26
2023-04-22T00:02:46.875Z,7.23
2023-04-22T00:05:17.029Z,7.36
2023-04-22T00:07:46.105Z,7.20
2023-04-22T00:10:13.356Z,6.97
2023-04-22T00:12:40.452Z,7.00
2023-04-22T00:15:08.361Z,7.08
2023-04-22T00:17:35.052Z,7.43
2023-04-22T00:20:01.822Z,7.41
2023-04-22T00:22:28.657Z,7.45
2023-04-22T00:24:55.680Z,7.45
2023-04-22T00:27:22.409Z,7.38
2023-04-22T00:29:49.427Z,7.52
2023-04-22T00:32:16.222Z,7.51
2023-04-22T00:34:42.895Z,7.57
2023-04-22T00:37:09.621Z,7.52
2023-04-22T00:39:39.361Z,7.28
2023-04-22T00:42:07.942Z,7.27
2023-04-22T00:44:36.244Z,6.90
2023-04-22T00:47:03.650Z,7.07
2023-04-22T00:49:31.360Z,6.94
2023-04-22T00:51:58.009Z,6.71
2023-04-22T00:54:24.757Z,6.91
2023-04-22T00:56:51.673Z,6.68
2023-04-22T00:59:18.791Z,6.74
2023-04-22T01:01:45.649Z,6.78
2023-04-22T01:04:14.395Z,6.98
2023-04-22T01:06:43.549Z,7.00
2023-04-22T01:09:10.384Z,6.95
2023-04-22T01:11:37.191Z,6.89
2023-04-22T01:14:04.287Z,6.87
2023-04-22T01:16:35.646Z,6.64
2023-04-22T01:19:02.534Z,6.91
2023-04-22T01:21:29.730Z,7.06
2023-04-22T01:24:02.313Z,6.90
2023-04-22T01:26:29.062Z,6.72
2023-04-22T01:28:55.974Z,6.65
2023-04-22T01:31:23.735Z,6.71
2023-04-22T01:33:51.398Z,6.63
2023-04-22T01:36:18.238Z,6.97
2023-04-22T01:38:45.493Z,6.81
2023-04-22T01:41:13.850Z,6.89
2023-04-22T01:43:40.544Z,6.89
2023-04-22T01:46:07.711Z,6.89
2023-04-22T01:48:35.689Z,6.95
2023-04-22T01:51:03.334Z,6.61
2023-04-22T01:53:30.708Z,6.80
2023-04-22T01:55:57.402Z,6.75
2023-04-22T01:58:24.065Z,7.00
2023-04-22T02:00:50.826Z,7.09
2023-04-22T02:03:17.636Z,7.26
2023-04-22T02:05:44.401Z,7.19
2023-04-22T02:08:11.191Z,7.30
2023-04-22T02:10:37.957Z,7.26
2023-04-22T02:13:04.706Z,7.39
2023-04-22T02:15:31.564Z,7.29
2023-04-22T02:17:58.407Z,6.93
2023-04-22T02:20:25.084Z,6.57
2023-04-22T02:22:52.059Z,6.43
2023-04-22T02:25:18.982Z,6.71
2023-04-22T02:27:45.919Z,6.82
2023-04-22T02:30:12.826Z,6.82
2023-04-22T02:32:40.316Z,6.87
2023-04-22T02:35:07.571Z,6.95
2023-04-22T02:37:34.378Z,6.97
2023-04-22T02:40:01.088Z,6.97
2023-04-22T02:42:27.810Z,6.93
2023-04-22T02:44:54.520Z,6.87
2023-04-22T02:47:21.985Z,6.69
2023-04-22T02:49:48.705Z,6.63
2023-04-22T02:52:15.727Z,6.31
2023-04-22T02:54:42.474Z,6.33
2023-04-22T02:57:09.168Z,6.40
2023-04-22T02:59:38.042Z,6.37
2023-04-22T03:02:06.872Z,6.40
2023-04-22T03:04:33.849Z,6.59
2023-04-22T03:07:00.664Z,6.57
2023-04-22T03:09:27.334Z,6.67
2023-04-22T03:11:54.000Z,6.71
2023-04-22T03:14:20.849Z,6.76
2023-04-22T03:16:47.621Z,6.81
2023-04-22T03:19:14.454Z,6.75
2023-04-22T03:21:41.335Z,6.66
2023-04-22T03:24:08.066Z,6.56
2023-04-22T03:26:34.838Z,6.28
2023-04-22T03:29:01.993Z,6.54
2023-04-22T03:31:28.757Z,6.30
2023-04-22T03:33:55.478Z,6.39
2023-04-22T03:36:22.192Z,6.46
2023-04-22T03:38:49.103Z,6.22
2023-04-22T03:41:15.821Z,6.34
2023-04-22T03:43:42.556Z,6.37
2023-04-22T03:46:09.431Z,6.53
2023-04-22T03:48:36.291Z,6.58
2023-04-22T03:51:03.530Z,6.59
2023-04-22T03:53:30.237Z,6.54
2023-04-22T03:55:57.058Z,6.44
2023-04-22T03:58:23.888Z,6.43
2023-04-22T04:00:50.667Z,6.28
2023-04-22T04:03:17.502Z,6.29
2023-04-22T04:05:44.408Z,6.50
2023-04-22T04:08:11.314Z,6.56
2023-04-22T04:10:38.034Z,6.68
2023-04-22T04:13:04.849Z,6.65
2023-04-22T04:15:32.726Z,6.80
2023-04-22T04:18:01.437Z,6.74
2023-04-22T04:20:28.308Z,6.83
2023-04-22T04:22:55.046Z,6.86
2023-04-22T04:25:21.811Z,6.86
2023-04-22T04:27:48.714Z,6.66
2023-04-22T04:30:16.394Z,6.58
2023-04-22T04:32:45.668Z,6.34
2023-04-22T04:35:17.562Z,6.39
2023-04-22T04:37:44.389Z,6.15
2023-04-22T04:40:12.523Z,6.06
2023-04-22T04:42:39.400Z,6.34
2023-04-22T04:45:07.712Z,6.73
2023-04-22T04:47:34.625Z,7.06
2023-04-22T04:50:04.556Z,7.48
2023-04-22T04:52:31.801Z,7.19
2023-04-22T04:54:58.705Z,7.21
2023-04-22T04:57:26.185Z,7.25
2023-04-22T04:59:52.849Z,7.40
2023-04-22T05:02:19.926Z,7.69
2023-04-22T05:04:47.011Z,8.15
2023-04-22T05:07:14.311Z,9.38
2023-04-22T05:09:41.855Z,10.88
2023-04-22T05:12:08.922Z,12.02
2023-04-22T05:14:35.659Z,13.15
2023-04-22T05:17:02.854Z,14.31
2023-04-22T05:19:30.000Z,14.48
2023-04-22T05:21:56.667Z,14.76
2023-04-22T05:24:23.344Z,16.46
2023-04-22T05:26:50.467Z,17.34
2023-04-22T05:29:17.418Z,17.56
2023-04-22T05:31:44.390Z,17.55
2023-04-22T05:34:12.520Z,18.91
2023-04-22T05:36:39.368Z,20.28
2023-04-22T05:39:06.694Z,20.97
2023-04-22T05:41:33.555Z,21.63
2023-04-22T05:44:01.235Z,22.22
2023-04-22T05:46:27.989Z,22.61
2023-04-22T05:48:55.933Z,23.06
2023-04-22T05:51:26.750Z,22.23
2023-04-22T05:53:53.485Z,22.81
2023-04-22T05:56:21.419Z,23.24
2023-04-22T05:58:48.173Z,22.45
2023-04-22T06:01:15.013Z,22.45
2023-04-22T06:03:42.043Z,22.00
2023-04-22T06:06:09.058Z,21.34
2023-04-22T06:08:35.787Z,20.50
2023-04-22T06:11:02.715Z,19.13
2023-04-22T06:13:29.381Z,20.27
2023-04-22T06:15:56.561Z,19.66
2023-04-22T06:18:23.337Z,19.81
2023-04-22T06:20:52.024Z,19.21
2023-04-22T06:23:18.711Z,20.35
2023-04-22T06:25:45.493Z,20.58
2023-04-22T06:28:12.144Z,16.93
2023-04-22T06:30:38.783Z,15.09
2023-04-22T06:33:05.435Z,15.16
2023-04-22T06:35:32.295Z,17.24
2023-04-22T06:37:59.015Z,16.17
2023-04-22T06:40:25.840Z,14.62
2023-04-22T06:42:52.479Z,14.46
2023-04-22T06:45:20.438Z,15.41
2023-04-22T06:47:47.425Z,17.65
2023-04-22T06:50:14.133Z,18.54
2023-04-22T06:52:40.848Z,19.69
2023-04-22T06:55:07.778Z,18.85
2023-04-22T06:57:34.510Z,19.47
2023-04-22T07:00:01.200Z,20.28
2023-04-22T07:02:28.005Z,20.68
2023-04-22T07:04:54.842Z,19.79
2023-04-22T07:07:21.623Z,19.84
2023-04-22T07:09:48.668Z,19.20
2023-04-22T07:12:17.974Z,20.50
2023-04-22T07:14:45.764Z,19.41
2023-04-22T07:17:12.700Z,19.87
2023-04-22T07:19:39.827Z,20.63
2023-04-22T07:22:06.990Z,19.96
2023-04-22T07:24:33.717Z,18.55
2023-04-22T07:27:01.526Z,20.86
2023-04-22T07:29:28.210Z,20.10
2023-04-22T07:31:54.951Z,19.02
2023-04-22T07:34:21.696Z,20.54
2023-04-22T07:36:51.488Z,22.05
2023-04-22T07:39:18.334Z,18.95
2023-04-22T07:41:45.131Z,17.83
2023-04-22T07:44:16.477Z,16.09
2023-04-22T07:46:43.709Z,15.80
2023-04-22T07:49:10.486Z,15.30
2023-04-22T07:51:37.103Z,17.10
2023-04-22T07:54:04.004Z,17.71
2023-04-22T07:56:30.803Z,17.91
2023-04-22T07:58:57.477Z,17.66
2023-04-22T08:01:24.403Z,16.96
2023-04-22T08:03:51.389Z,15.59
2023-04-22T08:06:18.339Z,15.46
2023-04-22T08:08:45.130Z,14.61
2023-04-22T08:11:11.930Z,14.07
2023-04-22T08:13:38.592Z,13.76
2023-04-22T08:16:07.520Z,13.21
2023-04-22T08:18:34.310Z,12.73
2023-04-22T08:21:02.118Z,12.47
2023-04-22T08:23:28.833Z,12.09
2023-04-22T08:25:55.717Z,11.75
2023-04-22T08:28:22.484Z,11.04
2023-04-22T08:30:49.166Z,10.68
2023-04-22T08:33:16.643Z,10.77
2023-04-22T08:35:43.434Z,10.52
2023-04-22T08:38:10.093Z,10.30
2023-04-22T08:40:40.494Z,10.04
2023-04-22T08:43:07.339Z,9.96
2023-04-22T08:45:34.076Z,9.97
2023-04-22T08:48:02.409Z,9.89
2023-04-22T08:50:30.272Z,10.02
2023-04-22T08:52:57.886Z,10.05
2023-04-22T08:55:26.714Z,9.80
2023-04-22T08:57:54.168Z,9.74
2023-04-22T09:00:21.237Z,9.44
2023-04-22T09:02:50.632Z,9.44
2023-04-22T09:05:18.410Z,9.63
2023-04-22T09:07:45.440Z,9.62
2023-04-22T09:10:12.114Z,9.70
2023-04-22T09:12:41.164Z,9.91
2023-04-22T09:15:09.003Z,9.79
2023-04-22T09:17:38.388Z,9.70
2023-04-22T09:20:07.303Z,9.88
2023-04-22T09:22:40.365Z,9.73
2023-04-22T09:25:28.520Z,9.75
2023-04-22T09:27:57.363Z,10.11
2023-04-22T09:30:32.894Z,10.02
2023-04-22T09:33:02.032Z,10.15
2023-04-22T09:35:29.839Z,10.30
2023-04-22T09:37:57.734Z,10.25
2023-04-22T09:40:25.735Z,10.72
2023-04-22T09:42:54.668Z,10.86
2023-04-22T09:45:38.778Z,10.90
2023-04-22T09:48:16.147Z,10.87
2023-04-22T09:50:48.697Z,10.89
2023-04-22T09:53:18.026Z,10.24
2023-04-22T09:55:47.820Z,10.33
2023-04-22T09:58:16.761Z,9.96
2023-04-22T10:00:47.684Z,10.12
2023-04-22T10:03:15.699Z,10.25
2023-04-22T10:05:45.011Z,9.85
2023-04-22T10:08:13.397Z,9.51
2023-04-22T10:10:40.642Z,9.32
2023-04-22T10:13:11.134Z,9.19
2023-04-22T10:15:49.521Z,9.35
2023-04-22T10:18:21.707Z,9.36
2023-04-22T10:20:50.237Z,9.62
2023-04-22T10:23:22.194Z,9.15
2023-04-22T10:25:54.373Z,9.34
2023-04-22T10:28:22.704Z,9.73
2023-04-22T10:30:49.979Z,9.79
2023-04-22T10:33:28.625Z,9.78
2023-04-22T10:36:20.499Z,9.49
2023-04-22T10:38:50.236Z,9.22
2023-04-22T10:41:17.298Z,9.31
2023-04-22T10:43:49.269Z,9.54
2023-04-22T10:46:40.365Z,9.57
2023-04-22T10:49:07.746Z,9.52
2023-04-22T10:51:49.814Z,9.68
2023-04-22T10:54:27.355Z,9.91
2023-04-22T10:57:12.367Z,10.17
2023-04-22T10:59:45.942Z,10.28
2023-04-22T11:02:15.162Z,10.75
2023-04-22T11:04:42.549Z,11.20
2023-04-22T11:07:20.437Z,11.60
2023-04-22T11:09:51.176Z,11.84
2023-04-22T11:12:38.557Z,11.77
2023-04-22T11:15:05.809Z,11.67
2023-04-22T11:17:32.587Z,11.70
2023-04-22T11:19:59.763Z,11.35
2023-04-22T11:22:27.207Z,11.51
2023-04-22T11:24:58.348Z,11.56
2023-04-22T11:27:30.384Z,10.87
2023-04-22T11:30:03.680Z,11.13
2023-04-22T11:32:31.598Z,10.62
2023-04-22T11:34:58.518Z,10.13
2023-04-22T11:37:25.472Z,10.36
2023-04-22T11:40:13.652Z,10.65
2023-04-22T11:42:39.901Z,10.40
2023-04-22T11:45:07.877Z,10.51
2023-04-22T11:47:35.313Z,11.06
2023-04-22T11:50:05.220Z,10.75
2023-04-22T11:52:48.174Z,10.83
2023-04-22T11:55:17.697Z,10.70
2023-04-22T11:57:46.128Z,10.54
2023-04-22T12:00:15.152Z,10.58
2023-04-22T12:02:42.170Z,10.50
2023-04-22T12:05:15.431Z,10.65
2023-04-22T12:07:43.381Z,10.63
2023-04-22T12:10:11.224Z,10.53
2023-04-22T12:12:40.190Z,10.32
2023-04-22T12:15:13.646Z,10.43
2023-04-22T12:17:40.941Z,10.24
2023-04-22T12:20:12.809Z,10.01
2023-04-22T12:22:39.951Z,9.99
2023-04-22T12:25:07.106Z,10.09
2023-04-22T12:27:34.107Z,10.07
2023-04-22T12:30:00.770Z,10.03
2023-04-22T12:32:29.048Z,9.96
2023-04-22T12:34:56.335Z,9.65
2023-04-22T12:37:23.049Z,9.76
2023-04-22T12:39:49.733Z,9.77
2023-04-22T12:42:16.403Z,9.80
2023-04-22T12:44:43.876Z,9.79
2023-04-22T12:47:10.730Z,9.57
2023-04-22T12:49:38.679Z,9.71
2023-04-22T12:52:05.670Z,9.78
2023-04-22T12:54:32.705Z,9.77
2023-04-22T12:56:59.531Z,9.83
2023-04-22T12:59:26.242Z,9.73
2023-04-22T13:01:54.951Z,9.89
2023-04-22T13:04:21.953Z,9.91
2023-04-22T13:06:56.186Z,9.87
2023-04-22T13:09:26.347Z,9.86
2023-04-22T13:11:53.285Z,9.66
2023-04-22T13:14:20.018Z,9.70
2023-04-22T13:16:46.758Z,9.47
2023-04-22T13:19:14.047Z,9.51
2023-04-22T13:21:40.894Z,9.50
2023-04-22T13:24:07.803Z,9.39
2023-04-22T13:26:36.274Z,9.29
2023-04-22T13:29:03.149Z,9.39
2023-04-22T13:31:29.806Z,9.24
2023-04-22T13:33:56.617Z,9.20
2023-04-22T13:36:23.459Z,9.23
2023-04-22T13:38:51.231Z,9.32
2023-04-22T13:41:18.627Z,9.05
2023-04-22T13:43:45.583Z,9.09
2023-04-22T13:46:12.381Z,9.15
2023-04-22T13:48:39.286Z,9.15
2023-04-22T13:51:06.049Z,9.36
2023-04-22T13:53:34.552Z,9.15
2023-04-22T13:56:01.483Z,9.18
2023-04-22T13:58:28.389Z,9.17
2023-04-22T14:00:55.554Z,9.20
2023-04-22T14:03:22.789Z,8.89
2023-04-22T14:05:49.736Z,8.90
2023-04-22T14:08:16.686Z,8.90
2023-04-22T14:10:51.176Z,8.89
2023-04-22T14:13:18.822Z,9.10
2023-04-22T14:15:45.455Z,8.91
2023-04-22T14:18:12.721Z,8.83
2023-04-22T14:20:39.416Z,8.80
2023-04-22T14:23:06.089Z,8.73
2023-04-22T14:25:32.846Z,9.07
2023-04-22T14:27:59.544Z,8.98
2023-04-22T14:30:26.452Z,9.06
2023-04-22T14:32:53.250Z,9.08
2023-04-22T14:35:20.066Z,8.98
2023-04-22T14:37:47.096Z,8.91
2023-04-22T14:40:13.929Z,8.76
2023-04-22T14:42:41.357Z,8.40
2023-04-22T14:45:08.389Z,8.42
2023-04-22T14:47:35.306Z,8.44
2023-04-22T14:50:02.801Z,8.21
2023-04-22T14:52:31.287Z,8.30
2023-04-22T14:55:00.131Z,8.09
2023-04-22T14:57:28.528Z,7.99
2023-04-22T14:59:55.385Z,8.01
2023-04-22T15:02:22.210Z,8.08
2023-04-22T15:04:48.947Z,8.06
2023-04-22T15:07:16.130Z,7.84
2023-04-22T15:09:43.260Z,7.96
2023-04-22T15:12:10.388Z,7.67
2023-04-22T15:14:42.321Z,7.82
2023-04-22T15:17:09.601Z,7.82
2023-04-22T15:19:36.820Z,7.69
2023-04-22T15:22:03.590Z,7.92
2023-04-22T15:24:30.665Z,8.02
2023-04-22T15:26:58.158Z,8.07
2023-04-22T15:29:24.834Z,7.99
2023-04-22T15:31:53.946Z,8.11
2023-04-22T15:34:22.110Z,8.09
2023-04-22T15:36:49.156Z,8.10
2023-04-22T15:39:16.079Z,8.00
2023-04-22T15:41:43.587Z,7.70
2023-04-22T15:44:12.404Z,7.76
2023-04-22T15:46:39.801Z,7.83
2023-04-22T15:49:06.535Z,7.86
2023-04-22T15:51:33.202Z,7.82
2023-04-22T15:54:00.536Z,7.62
2023-04-22T15:56:29.499Z,7.35
2023-04-22T15:58:56.115Z,7.44
2023-04-22T16:01:22.962Z,7.45
2023-04-22T16:03:49.917Z,7.52
2023-04-22T16:06:20.336Z,7.43
2023-04-22T16:08:47.113Z,7.33
2023-04-22T16:11:14.896Z,7.39
2023-04-22T16:13:42.608Z,7.34
2023-04-22T16:16:09.838Z,7.29
2023-04-22T16:18:36.770Z,7.10
2023-04-22T16:21:04.004Z,7.63
2023-04-22T16:23:30.996Z,7.67
2023-04-22T16:25:58.541Z,7.63
2023-04-22T16:28:25.399Z,7.64
2023-04-22T16:30:52.124Z,7.67
2023-04-22T16:33:18.916Z,7.65
2023-04-22T16:35:45.605Z,7.57
2023-04-22T16:38:12.402Z,7.52
2023-04-22T16:40:39.867Z,7.48
2023-04-22T16:43:07.366Z,7.48
2023-04-22T16:45:34.215Z,7.49
2023-04-22T16:48:00.918Z,7.30
2023-04-22T16:50:27.674Z,7.16
2023-04-22T16:52:54.483Z,6.97
2023-04-22T16:55:21.167Z,6.96
2023-04-22T16:57:50.658Z,6.63
2023-04-22T17:00:18.695Z,6.71
2023-04-22T17:02:45.817Z,6.86
2023-04-22T17:05:12.691Z,6.97
2023-04-22T17:07:39.404Z,6.89
2023-04-22T17:10:07.305Z,6.78
2023-04-22T17:12:34.296Z,6.78
2023-04-22T17:15:11.373Z,6.70
2023-04-22T17:17:39.240Z,6.78
2023-04-22T17:20:06.729Z,6.75
2023-04-22T17:22:33.522Z,6.52
2023-04-22T17:25:00.267Z,6.58
2023-04-22T17:27:27.193Z,6.53
2023-04-22T17:29:53.958Z,6.39
2023-04-22T17:32:20.917Z,6.28
2023-04-22T17:34:48.013Z,6.31
2023-04-22T17:37:14.892Z,6.32
2023-04-22T17:39:41.954Z,6.47
2023-04-22T17:42:08.696Z,6.34
2023-04-22T17:44:36.199Z,6.43
2023-04-22T17:47:05.202Z,6.43
2023-04-22T17:49:33.491Z,6.64
2023-04-22T17:52:00.489Z,6.66
2023-04-22T17:54:27.296Z,6.75
2023-04-22T17:56:54.025Z,6.39
2023-04-22T17:59:20.706Z,6.53
2023-04-22T18:01:47.411Z,6.23
2023-04-22T18:04:14.490Z,6.08
2023-04-22T18:06:41.534Z,6.27
2023-04-22T18:09:08.454Z,6.10
2023-04-22T18:11:35.519Z,6.11
2023-04-22T18:14:02.713Z,6.17
2023-04-22T18:16:29.457Z,6.37
2023-04-22T18:18:56.298Z,6.25
2023-04-22T18:21:23.188Z,6.29
2023-04-22T18:23:49.829Z,6.51
2023-04-22T18:26:16.732Z,6.53
2023-04-22T18:28:44.663Z,6.39
2023-04-22T18:31:11.465Z,6.05
2023-04-22T18:33:38.212Z,5.92
2023-04-22T18:36:05.904Z,6.01
2023-04-22T18:38:32.720Z,5.97
2023-04-22T18:40:59.433Z,5.93
2023-04-22T18:43:26.424Z,5.89
2023-04-22T18:45:53.139Z,6.19
2023-04-22T18:48:20.398Z,6.37
2023-04-22T18:50:47.097Z,6.27
2023-04-22T18:53:13.768Z,6.05
2023-04-22T18:55:40.618Z,6.06
2023-04-22T18:58:07.375Z,6.09
2023-04-22T19:00:34.184Z,6.20
2023-04-22T19:03:01.579Z,6.18
2023-04-22T19:05:28.418Z,6.21
2023-04-22T19:07:55.150Z,5.90
2023-04-22T19:10:21.908Z,5.99
2023-04-22T19:12:49.055Z,5.85
2023-04-22T19:15:16.113Z,5.78
2023-04-22T19:17:42.912Z,5.57
2023-04-22T19:20:10.436Z,5.43
2023-04-22T19:22:37.125Z,5.59
2023-04-22T19:25:06.081Z,5.44
2023-04-22T19:27:34.469Z,5.36
2023-04-22T19:30:01.271Z,5.48
2023-04-22T19:32:28.078Z,5.44
2023-04-22T19:34:54.821Z,5.37
2023-04-22T19:37:22.068Z,5.50
2023-04-22T19:39:48.896Z,5.33
2023-04-22T19:42:16.263Z,5.62
2023-04-22T19:44:49.451Z,5.59
2023-04-22T19:47:16.530Z,5.46
2023-04-22T19:49:43.801Z,5.65
2023-04-22T19:52:11.992Z,5.77
2023-04-22T19:54:41.492Z,5.83
2023-04-22T19:57:10.269Z,5.83
2023-04-22T19:59:39.846Z,5.79
2023-04-22T20:02:08.055Z,5.62
2023-04-22T20:04:35.599Z,5.44
2023-04-22T20:07:03.180Z,5.45
2023-04-22T20:09:32.940Z,5.57
2023-04-22T20:11:59.941Z,5.12
2023-04-22T20:14:26.900Z,4.81
2023-04-22T20:16:54.518Z,4.79
2023-04-22T20:19:21.442Z,4.70
2023-04-22T20:21:57.411Z,4.83
2023-04-22T20:24:26.097Z,5.07
2023-04-22T20:26:52.898Z,5.23
2023-04-22T20:29:22.340Z,5.26
2023-04-22T20:31:49.320Z,5.26
2023-04-22T20:34:16.805Z,5.22
2023-04-22T20:36:43.618Z,4.78
2023-04-22T20:39:14.249Z,4.71
2023-04-22T20:41:41.559Z,4.66
2023-04-22T20:44:08.700Z,4.95
2023-04-22T20:46:39.456Z,5.10
2023-04-22T20:49:06.715Z,5.34
2023-04-22T20:51:33.993Z,5.45
2023-04-22T20:54:00.685Z,5.39
2023-04-22T20:56:27.552Z,5.41
2023-04-22T20:58:54.561Z,5.34
2023-04-22T21:01:21.383Z,4.98
2023-04-22T21:03:53.110Z,4.45
2023-04-22T21:06:21.262Z,4.55
2023-04-22T21:08:49.210Z,4.85
2023-04-22T21:11:16.469Z,4.99
2023-04-22T21:13:45.055Z,5.20
2023-04-22T21:16:13.755Z,5.30
2023-04-22T21:18:44.536Z,5.36
2023-04-22T21:21:12.398Z,5.21
2023-04-22T21:23:41.691Z,4.91
2023-04-22T21:26:09.985Z,4.71
2023-04-22T21:28:37.403Z,4.96
2023-04-22T21:31:04.522Z,5.03
2023-04-22T21:33:33.106Z,4.93
2023-04-22T21:36:00.155Z,4.91
2023-04-22T21:38:27.139Z,4.86
2023-04-22T21:40:54.388Z,4.50
2023-04-22T21:43:21.177Z,4.67
2023-04-22T21:45:47.838Z,4.71
2023-04-22T21:48:14.568Z,4.63
2023-04-22T21:50:41.351Z,4.62
2023-04-22T21:53:08.158Z,4.26
2023-04-22T21:55:34.931Z,4.27
2023-04-22T21:58:01.827Z,4.24
2023-04-22T22:00:28.846Z,4.08
2023-04-22T22:02:55.753Z,3.94
2023-04-22T22:05:22.542Z,4.15
2023-04-22T22:07:49.385Z,4.27
2023-04-22T22:10:26.442Z,4.40
2023-04-22T22:12:53.104Z,4.33
2023-04-22T22:15:20.362Z,4.63
2023-04-22T22:17:54.245Z,4.63
2023-04-22T22:20:21.095Z,4.49
2023-04-22T22:22:47.818Z,4.22
2023-04-22T22:25:16.071Z,4.28
2023-04-22T22:27:48.810Z,4.38
2023-04-22T22:30:18.311Z,4.48
2023-04-22T22:32:45.184Z,4.46
2023-04-22T22:35:12.114Z,4.35
2023-04-22T22:37:38.906Z,4.36
2023-04-22T22:40:06.374Z,4.01
2023-04-22T22:42:33.528Z,3.93
2023-04-22T22:45:00.366Z,3.95
2023-04-22T22:47:27.239Z,4.02
2023-04-22T22:49:53.960Z,4.08
2023-04-22T22:52:20.789Z,4.12
2023-04-22T22:54:49.017Z,4.18
2023-04-22T22:57:16.314Z,3.58
2023-04-22T22:59:43.153Z,3.55
2023-04-22T23:02:10.311Z,3.64
2023-04-22T23:04:39.475Z,3.33
2023-04-22T23:07:06.394Z,3.75
2023-04-22T23:09:33.065Z,3.70
2023-04-22T23:11:59.792Z,3.85
2023-04-22T23:14:30.242Z,3.75
2023-04-22T23:16:57.037Z,3.97
2023-04-22T23:19:24.137Z,4.00
2023-04-22T23:21:51.532Z,4.09
2023-04-22T23:24:18.525Z,4.17
2023-04-22T23:26:45.928Z,4.21
2023-04-22T23:29:12.896Z,4.09
2023-04-22T23:31:41.770Z,4.02
2023-04-22T23:34:09.454Z,4.02
2023-04-22T23:36:37.220Z,3.65
2023-04-22T23:39:05.856Z,3.99
2023-04-22T23:41:33.142Z,4.02
2023-04-22T23:43:59.989Z,4.04
2023-04-22T23:46:27.871Z,4.22
2023-04-22T23:48:54.799Z,4.35
2023-04-22T23:51:21.975Z,4.46
2023-04-22T23:53:48.768Z,4.55
2023-04-22T23:56:20.138Z,4.59
2023-04-22T23:58:47.689Z,4.65
